createdAt,value
2023-05-21T00:01:19.729Z,11.70
2023-05-21T00:03:47.234Z,11.70
2023-05-21T00:06:15.592Z,11.70
2023-05-21T00:08:43.205Z,11.60
2023-05-21T00:11:10.877Z,11.50
2023-05-21T00:13:41.106Z,11.50
2023-05-21T00:16:08.536Z,11.50
2023-05-21T00:18:35.990Z,11.50
2023-05-21T00:21:06.662Z,11.40
2023-05-21T00:23:34.185Z,11.40
2023-05-21T00:26:01.696Z,11.30
2023-05-21T00:28:28.983Z,11.40
2023-05-21T00:30:56.352Z,11.20
2023-05-21T00:33:26.727Z,11.20
2023-05-21T00:35:54.139Z,11.10
2023-05-21T00:38:22.228Z,11.10
2023-05-21T00:40:50.131Z,11.10
2023-05-21T00:43:17.766Z,11.00
2023-05-21T00:45:46.820Z,10.90
2023-05-21T00:48:15.084Z,10.90
2023-05-21T00:50:42.826Z,10.80
2023-05-21T00:53:11.225Z,10.80
2023-05-21T00:55:40.989Z,10.70
2023-05-21T00:58:08.494Z,10.70
2023-05-21T01:00:36.407Z,10.70
2023-05-21T01:03:04.584Z,10.70
2023-05-21T01:05:32.619Z,10.70
2023-05-21T01:08:02.932Z,10.60
2023-05-21T01:10:30.737Z,10.60
2023-05-21T01:12:59.053Z,10.60
2023-05-21T01:15:27.581Z,10.60
2023-05-21T01:17:56.103Z,10.60
2023-05-21T01:20:24.956Z,10.50
2023-05-21T01:22:53.495Z,10.40
2023-05-21T01:25:29.826Z,10.40
2023-05-21T01:27:58.065Z,10.30
2023-05-21T01:30:25.502Z,10.30
2023-05-21T01:33:13.183Z,10.30
2023-05-21T01:36:04.123Z,10.30
2023-05-21T01:38:37.581Z,10.30
2023-05-21T01:41:10.748Z,10.30
2023-05-21T01:43:42.671Z,10.30
2023-05-21T01:46:10.971Z,10.30
2023-05-21T01:48:38.776Z,10.20
2023-05-21T01:51:06.705Z,10.20
2023-05-21T01:53:34.112Z,10.20
2023-05-21T01:56:02.943Z,10.20
2023-05-21T01:58:30.868Z,10.20
2023-05-21T02:00:58.318Z,10.20
2023-05-21T02:03:27.168Z,10.20
2023-05-21T02:05:55.851Z,10.20
2023-05-21T02:08:23.737Z,10.20
2023-05-21T02:10:51.657Z,10.20
2023-05-21T02:13:25.753Z,10.10
2023-05-21T02:15:54.943Z,10.10
2023-05-21T02:18:23.527Z,10.10
2023-05-21T02:20:50.930Z,10.10
2023-05-21T02:23:21.390Z,10.10
2023-05-21T02:25:49.156Z,10.10
2023-05-21T02:28:18.985Z,10.00
2023-05-21T02:30:49.196Z,10.00
2023-05-21T02:33:16.689Z,10.10
2023-05-21T02:35:44.732Z,10.10
2023-05-21T02:38:13.861Z,10.10
2023-05-21T02:40:41.537Z,10.00
2023-05-21T02:43:09.128Z,10.00
2023-05-21T02:45:36.706Z,9.90
2023-05-21T02:48:04.638Z,9.90
2023-05-21T02:50:36.689Z,9.80
2023-05-21T02:53:04.528Z,9.70
2023-05-21T02:55:35.756Z,9.70
2023-05-21T02:58:03.670Z,9.70
2023-05-21T03:00:31.284Z,9.60
2023-05-21T03:03:00.429Z,9.60
2023-05-21T03:05:28.111Z,9.60
2023-05-21T03:07:58.303Z,9.60
2023-05-21T03:10:26.385Z,9.60
2023-05-21T03:12:54.981Z,9.60
2023-05-21T03:15:26.131Z,9.60
2023-05-21T03:17:54.451Z,9.50
2023-05-21T03:20:23.894Z,9.50
2023-05-21T03:22:51.219Z,9.40
2023-05-21T03:25:19.821Z,9.40
2023-05-21T03:27:47.565Z,9.50
2023-05-21T03:30:42.141Z,9.50
2023-05-21T03:33:28.128Z,9.60
2023-05-21T03:35:56.517Z,9.60
2023-05-21T03:38:26.657Z,9.60
2023-05-21T03:40:55.073Z,9.70
2023-05-21T03:43:23.730Z,9.70
2023-05-21T03:45:51.499Z,9.80
2023-05-21T03:48:39.115Z,9.90
2023-05-21T03:51:09.851Z,10.00
2023-05-21T03:53:37.611Z,10.10
2023-05-21T03:56:10.651Z,10.10
2023-05-21T03:58:41.583Z,10.10
2023-05-21T04:01:09.104Z,10.20
2023-05-21T04:03:39.994Z,10.30
2023-05-21T04:06:10.436Z,10.40
2023-05-21T04:08:39.862Z,10.50
2023-05-21T04:11:07.349Z,10.60
2023-05-21T04:13:36.416Z,10.70
2023-05-21T04:16:09.149Z,10.90
2023-05-21T04:18:36.854Z,11.10
2023-05-21T04:21:04.468Z,11.30
2023-05-21T04:23:32.406Z,11.50
2023-05-21T04:26:00.250Z,11.70
2023-05-21T04:28:29.017Z,11.80
2023-05-21T04:30:57.348Z,12.10
2023-05-21T04:33:25.838Z,12.30
2023-05-21T04:35:53.966Z,12.50
2023-05-21T04:38:21.524Z,12.80
2023-05-21T04:40:52.188Z,13.10
2023-05-21T04:43:26.477Z,13.40
2023-05-21T04:45:57.322Z,13.70
2023-05-21T04:48:26.903Z,13.90
2023-05-21T04:50:54.902Z,14.10
2023-05-21T04:53:23.570Z,14.40
2023-05-21T04:55:51.544Z,14.60
2023-05-21T04:58:20.004Z,14.60
2023-05-21T05:00:51.057Z,14.80
2023-05-21T05:03:18.828Z,15.00
2023-05-21T05:05:46.671Z,15.30
2023-05-21T05:08:15.956Z,15.40
2023-05-21T05:10:46.378Z,15.60
2023-05-21T05:13:13.684Z,15.70
2023-05-21T05:15:41.397Z,15.80
2023-05-21T05:18:09.312Z,16.00
2023-05-21T05:20:36.743Z,16.20
2023-05-21T05:23:04.244Z,16.30
2023-05-21T05:25:31.795Z,16.60
2023-05-21T05:27:59.667Z,16.60
2023-05-21T05:30:27.088Z,16.60
2023-05-21T05:32:58.876Z,16.90
2023-05-21T05:35:26.404Z,16.90
2023-05-21T05:37:53.748Z,17.10
2023-05-21T05:40:21.080Z,17.30
2023-05-21T05:42:52.849Z,17.70
2023-05-21T05:45:20.599Z,18.00
2023-05-21T05:47:48.510Z,17.70
2023-05-21T05:50:16.098Z,17.80
2023-05-21T05:52:43.825Z,18.20
2023-05-21T05:55:12.257Z,18.40
2023-05-21T05:57:39.670Z,18.80
2023-05-21T06:00:12.675Z,19.00
2023-05-21T06:02:40.459Z,19.00
2023-05-21T06:05:09.984Z,19.40
2023-05-21T06:07:38.899Z,19.70
2023-05-21T06:10:09.727Z,20.50
2023-05-21T06:12:37.102Z,20.90
2023-05-21T06:15:05.284Z,21.40
2023-05-21T06:17:32.978Z,21.50
2023-05-21T06:20:01.091Z,21.70
2023-05-21T06:22:28.703Z,22.00
2023-05-21T06:24:56.751Z,22.00
2023-05-21T06:27:24.142Z,22.00
2023-05-21T06:29:52.083Z,22.30
2023-05-21T06:32:21.541Z,22.00
2023-05-21T06:34:48.981Z,22.40
2023-05-21T06:37:26.468Z,22.70
2023-05-21T06:39:54.745Z,22.90
2023-05-21T06:42:22.459Z,23.20
2023-05-21T06:45:08.445Z,23.00
2023-05-21T06:47:39.746Z,23.00
2023-05-21T06:50:07.278Z,22.70
2023-05-21T06:52:34.905Z,22.80
2023-05-21T06:55:03.536Z,22.90
2023-05-21T06:57:49.084Z,23.30
2023-05-21T07:00:16.832Z,23.40
2023-05-21T07:02:44.401Z,23.40
2023-05-21T07:05:11.753Z,23.40
2023-05-21T07:07:39.121Z,23.10
2023-05-21T07:10:06.890Z,23.00
2023-05-21T07:12:34.421Z,23.00
2023-05-21T07:15:05.214Z,22.90
2023-05-21T07:17:32.714Z,22.80
2023-05-21T07:20:00.695Z,22.90
2023-05-21T07:22:29.116Z,23.10
2023-05-21T07:24:56.423Z,23.30
2023-05-21T07:27:25.686Z,23.80
2023-05-21T07:29:55.064Z,24.50
2023-05-21T07:32:23.013Z,25.40
2023-05-21T07:34:51.560Z,26.50
2023-05-21T07:37:20.834Z,27.20
2023-05-21T07:39:48.561Z,27.70
2023-05-21T07:42:17.059Z,28.20
2023-05-21T07:44:44.601Z,28.90
2023-05-21T07:47:12.010Z,29.40
2023-05-21T07:49:39.553Z,29.60
2023-05-21T07:52:07.054Z,29.90
2023-05-21T07:54:34.733Z,29.70
2023-05-21T07:57:03.201Z,29.90
2023-05-21T07:59:57.971Z,30.20
2023-05-21T08:02:25.722Z,30.30
2023-05-21T08:04:55.251Z,30.70
2023-05-21T08:07:22.820Z,30.90
2023-05-21T08:09:54.258Z,31.50
2023-05-21T08:12:21.557Z,31.80
2023-05-21T08:14:49.421Z,32.10
2023-05-21T08:17:17.209Z,32.50
2023-05-21T08:19:47.624Z,33.10
2023-05-21T08:22:15.252Z,33.80
2023-05-21T08:24:45.986Z,32.90
2023-05-21T08:27:15.344Z,31.00
2023-05-21T08:29:43.403Z,31.30
2023-05-21T08:32:11.225Z,30.50
2023-05-21T08:34:41.651Z,30.20
2023-05-21T08:37:21.762Z,30.10
2023-05-21T08:40:15.258Z,30.60
2023-05-21T08:42:45.503Z,29.70
2023-05-21T08:45:21.269Z,29.40
2023-05-21T08:47:53.091Z,29.50
2023-05-21T08:50:21.252Z,30.70
2023-05-21T08:52:52.014Z,30.70
2023-05-21T08:55:23.792Z,30.70
2023-05-21T08:57:53.667Z,31.20
2023-05-21T09:00:21.436Z,31.20
2023-05-21T09:02:51.789Z,31.20
2023-05-21T09:05:20.456Z,31.40
2023-05-21T09:07:57.679Z,32.40
2023-05-21T09:10:39.328Z,33.00
2023-05-21T09:13:08.211Z,33.40
2023-05-21T09:15:37.978Z,33.00
2023-05-21T09:18:06.898Z,32.20
2023-05-21T09:20:57.350Z,31.70
2023-05-21T09:23:28.680Z,31.30
2023-05-21T09:25:56.267Z,30.30
2023-05-21T09:28:30.308Z,30.30
2023-05-21T09:31:03.588Z,31.10
2023-05-21T09:33:31.842Z,30.70
2023-05-21T09:35:59.480Z,29.90
2023-05-21T09:38:27.680Z,29.60
2023-05-21T09:40:55.918Z,29.70
2023-05-21T09:43:23.829Z,28.90
2023-05-21T09:45:52.689Z,28.50
2023-05-21T09:48:33.499Z,28.10
2023-05-21T09:51:12.924Z,27.80
2023-05-21T09:53:44.521Z,28.20
2023-05-21T09:56:14.652Z,28.20
2023-05-21T09:58:42.136Z,28.40
2023-05-21T10:01:10.599Z,28.80
2023-05-21T10:03:39.313Z,29.10
2023-05-21T10:06:09.004Z,28.30
2023-05-21T10:08:41.311Z,28.30
2023-05-21T10:11:09.182Z,28.00
2023-05-21T10:13:38.864Z,28.20
2023-05-21T10:16:06.503Z,28.30
2023-05-21T10:18:33.965Z,28.30
2023-05-21T10:21:02.383Z,28.60
2023-05-21T10:23:30.273Z,28.30
2023-05-21T10:25:58.728Z,28.80
2023-05-21T10:28:26.332Z,29.40
2023-05-21T10:30:54.766Z,29.50
2023-05-21T10:33:24.484Z,30.00
2023-05-21T10:35:53.458Z,29.90
2023-05-21T10:38:21.314Z,30.10
2023-05-21T10:40:49.435Z,29.70
2023-05-21T10:43:46.178Z,29.90
2023-05-21T10:46:34.809Z,30.00
2023-05-21T10:49:17.471Z,29.20
2023-05-21T10:51:53.075Z,29.30
2023-05-21T10:54:43.503Z,29.40
2023-05-21T10:57:23.206Z,29.30
2023-05-21T10:59:50.833Z,27.90
2023-05-21T11:02:19.200Z,27.40
2023-05-21T11:04:49.429Z,26.80
2023-05-21T11:07:24.093Z,26.30
2023-05-21T11:09:51.547Z,26.40
2023-05-21T11:12:23.388Z,26.80
2023-05-21T11:14:57.065Z,27.70
2023-05-21T11:17:37.891Z,28.50
2023-05-21T11:20:08.385Z,28.70
2023-05-21T11:22:36.660Z,28.70
2023-05-21T11:25:04.482Z,28.50
2023-05-21T11:27:36.690Z,28.40
2023-05-21T11:30:30.486Z,28.20
2023-05-21T11:33:30.090Z,28.40
2023-05-21T11:35:58.961Z,28.30
2023-05-21T11:38:31.199Z,28.10
2023-05-21T11:41:02.072Z,27.80
2023-05-21T11:43:29.548Z,27.90
2023-05-21T11:45:57.194Z,28.10
2023-05-21T11:48:28.965Z,28.10
2023-05-21T11:50:58.332Z,28.10
2023-05-21T11:53:25.719Z,27.70
2023-05-21T11:55:57.794Z,28.00
2023-05-21T11:58:25.276Z,28.40
2023-05-21T12:00:52.670Z,28.40
2023-05-21T12:03:27.004Z,28.70
2023-05-21T12:05:54.940Z,28.60
2023-05-21T12:08:28.004Z,28.90
2023-05-21T12:10:58.526Z,28.40
2023-05-21T12:13:26.404Z,28.00
2023-05-21T12:15:57.327Z,27.80
2023-05-21T12:18:25.340Z,27.80
2023-05-21T12:20:52.776Z,27.60
2023-05-21T12:23:26.238Z,27.60
2023-05-21T12:25:54.139Z,27.40
2023-05-21T12:28:22.112Z,27.30
2023-05-21T12:30:49.744Z,27.50
2023-05-21T12:33:19.055Z,27.80
2023-05-21T12:35:50.033Z,27.50
2023-05-21T12:38:17.918Z,27.50
2023-05-21T12:40:45.943Z,27.10
2023-05-21T12:43:13.875Z,26.60
2023-05-21T12:45:41.407Z,26.90
2023-05-21T12:48:09.153Z,27.10
2023-05-21T12:50:39.304Z,26.90
2023-05-21T12:53:09.190Z,27.00
2023-05-21T12:55:39.041Z,27.40
2023-05-21T12:58:09.138Z,27.80
2023-05-21T13:00:37.389Z,28.00
2023-05-21T13:03:09.003Z,27.90
2023-05-21T13:05:40.374Z,28.00
2023-05-21T13:08:09.535Z,27.70
2023-05-21T13:10:37.234Z,27.90
2023-05-21T13:13:04.806Z,28.20
2023-05-21T13:15:32.414Z,28.70
2023-05-21T13:18:01.350Z,28.90
2023-05-21T13:20:29.568Z,28.40
2023-05-21T13:22:56.912Z,27.60
2023-05-21T13:25:25.514Z,27.10
2023-05-21T13:27:57.068Z,26.60
2023-05-21T13:30:24.603Z,27.10
2023-05-21T13:32:52.412Z,27.50
2023-05-21T13:35:22.946Z,28.00
2023-05-21T13:37:51.014Z,28.70
2023-05-21T13:40:18.512Z,28.80
2023-05-21T13:42:46.973Z,28.60
2023-05-21T13:45:15.347Z,28.80
2023-05-21T13:47:43.270Z,29.00
2023-05-21T13:50:11.119Z,28.90
2023-05-21T13:52:38.659Z,27.80
2023-05-21T13:55:06.964Z,26.90
2023-05-21T13:57:34.491Z,26.50
2023-05-21T14:00:02.733Z,26.40
2023-05-21T14:02:35.118Z,26.00
2023-05-21T14:05:02.694Z,25.80
2023-05-21T14:07:30.085Z,26.30
2023-05-21T14:09:58.492Z,26.50
2023-05-21T14:12:26.906Z,26.80
2023-05-21T14:14:54.340Z,27.00
2023-05-21T14:17:21.805Z,27.40
2023-05-21T14:19:49.102Z,27.80
2023-05-21T14:22:16.709Z,28.10
2023-05-21T14:24:44.034Z,28.40
2023-05-21T14:27:13.162Z,28.30
2023-05-21T14:29:42.044Z,28.40
2023-05-21T14:32:09.600Z,28.40
2023-05-21T14:34:38.657Z,28.30
2023-05-21T14:37:09.007Z,27.90
2023-05-21T14:39:36.406Z,27.60
2023-05-21T14:42:04.906Z,27.80
2023-05-21T14:44:32.693Z,27.70
2023-05-21T14:47:00.299Z,27.70
2023-05-21T14:49:27.952Z,27.80
2023-05-21T14:51:55.410Z,27.80
2023-05-21T14:54:23.135Z,27.70
2023-05-21T14:56:55.778Z,28.20
2023-05-21T14:59:23.345Z,28.30
2023-05-21T15:01:53.503Z,28.00
2023-05-21T15:04:23.386Z,27.40
2023-05-21T15:06:51.346Z,27.20
2023-05-21T15:09:21.666Z,27.00
2023-05-21T15:11:52.633Z,26.90
2023-05-21T15:14:20.284Z,26.90
2023-05-21T15:16:47.868Z,26.60
2023-05-21T15:19:15.915Z,26.60
2023-05-21T15:21:43.529Z,26.50
2023-05-21T15:24:11.751Z,26.30
2023-05-21T15:26:39.124Z,26.40
2023-05-21T15:29:06.660Z,26.40
2023-05-21T15:31:34.290Z,26.50
2023-05-21T15:34:01.844Z,26.40
2023-05-21T15:36:32.027Z,26.40
2023-05-21T15:39:03.813Z,26.30
2023-05-21T15:41:37.657Z,26.30
2023-05-21T15:44:05.439Z,26.20
2023-05-21T15:46:35.739Z,26.10
2023-05-21T15:49:03.314Z,25.90
2023-05-21T15:51:30.899Z,25.70
2023-05-21T15:53:58.369Z,25.80
2023-05-21T15:56:26.836Z,25.70
2023-05-21T15:58:54.275Z,25.60
2023-05-21T16:01:22.425Z,25.50
2023-05-21T16:03:50.990Z,25.50
2023-05-21T16:06:20.066Z,25.50
2023-05-21T16:08:48.158Z,25.70
2023-05-21T16:11:16.299Z,25.80
2023-05-21T16:13:43.798Z,26.10
2023-05-21T16:16:11.318Z,26.10
2023-05-21T16:18:38.841Z,26.00
2023-05-21T16:21:06.252Z,26.20
2023-05-21T16:23:34.324Z,26.10
2023-05-21T16:26:01.752Z,25.90
2023-05-21T16:28:29.879Z,25.70
2023-05-21T16:30:57.710Z,25.70
2023-05-21T16:33:25.457Z,25.60
2023-05-21T16:35:54.099Z,25.50
2023-05-21T16:38:21.690Z,25.40
2023-05-21T16:40:49.277Z,25.40
2023-05-21T16:43:16.827Z,25.40
2023-05-21T16:45:49.695Z,25.40
2023-05-21T16:48:17.338Z,25.20
2023-05-21T16:50:46.249Z,25.00
2023-05-21T16:53:13.960Z,25.00
2023-05-21T16:55:42.797Z,25.00
2023-05-21T16:58:11.109Z,25.00
2023-05-21T17:00:38.540Z,25.00
2023-05-21T17:03:06.118Z,24.90
2023-05-21T17:05:33.589Z,24.80
2023-05-21T17:08:01.075Z,24.70
2023-05-21T17:10:29.281Z,24.60
2023-05-21T17:13:01.893Z,24.40
2023-05-21T17:15:34.698Z,24.30
2023-05-21T17:18:02.277Z,24.20
2023-05-21T17:20:29.874Z,24.00
2023-05-21T17:22:57.412Z,24.00
2023-05-21T17:25:25.364Z,23.90
2023-05-21T17:27:53.398Z,23.80
2023-05-21T17:30:20.976Z,23.80
2023-05-21T17:32:48.428Z,23.70
2023-05-21T17:35:18.732Z,23.60
2023-05-21T17:37:47.286Z,23.60
2023-05-21T17:40:14.788Z,23.60
2023-05-21T17:42:42.231Z,23.50
2023-05-21T17:45:10.002Z,23.50
2023-05-21T17:47:37.353Z,23.40
2023-05-21T17:50:08.751Z,23.30
2023-05-21T17:52:36.373Z,23.20
2023-05-21T17:55:04.111Z,23.20
2023-05-21T17:57:31.782Z,23.00
2023-05-21T18:00:08.801Z,22.90
2023-05-21T18:02:42.264Z,22.70
2023-05-21T18:05:09.782Z,22.70
2023-05-21T18:07:37.681Z,22.60
2023-05-21T18:10:15.726Z,22.50
2023-05-21T18:12:44.091Z,22.40
2023-05-21T18:15:13.725Z,22.30
2023-05-21T18:17:43.952Z,22.20
2023-05-21T18:20:12.137Z,22.10
2023-05-21T18:22:39.571Z,22.00
2023-05-21T18:25:07.289Z,22.10
2023-05-21T18:27:34.738Z,22.00
2023-05-21T18:30:05.320Z,21.90
2023-05-21T18:32:36.694Z,21.80
2023-05-21T18:35:05.538Z,21.70
2023-05-21T18:37:36.149Z,21.60
2023-05-21T18:40:06.116Z,21.50
2023-05-21T18:42:33.538Z,21.40
2023-05-21T18:45:05.932Z,21.30
2023-05-21T18:47:33.707Z,21.20
2023-05-21T18:50:01.228Z,21.10
2023-05-21T18:52:28.746Z,21.00
2023-05-21T18:54:56.308Z,21.00
2023-05-21T18:57:23.734Z,20.90
2023-05-21T18:59:51.098Z,20.80
2023-05-21T19:02:18.569Z,20.70
2023-05-21T19:04:46.176Z,20.60
2023-05-21T19:07:13.814Z,20.50
2023-05-21T19:09:41.547Z,20.40
2023-05-21T19:12:11.624Z,20.30
2023-05-21T19:14:47.955Z,20.30
2023-05-21T19:17:18.023Z,20.20
2023-05-21T19:19:45.513Z,20.00
2023-05-21T19:22:13.344Z,20.00
2023-05-21T19:24:42.957Z,19.80
2023-05-21T19:27:10.481Z,19.80
2023-05-21T19:29:38.429Z,19.70
2023-05-21T19:32:09.817Z,19.60
2023-05-21T19:34:37.489Z,19.40
2023-05-21T19:37:05.229Z,19.30
2023-05-21T19:39:39.268Z,19.30
2023-05-21T19:42:09.954Z,19.20
2023-05-21T19:44:40.533Z,19.00
2023-05-21T19:47:08.738Z,18.90
2023-05-21T19:49:36.248Z,18.80
2023-05-21T19:52:04.306Z,18.60
2023-05-21T19:54:31.858Z,18.50
2023-05-21T19:57:02.424Z,18.30
2023-05-21T19:59:29.844Z,18.20
2023-05-21T20:01:57.512Z,18.10
2023-05-21T20:04:25.158Z,17.90
2023-05-21T20:06:52.738Z,17.80
2023-05-21T20:09:23.152Z,17.80
2023-05-21T20:11:50.648Z,17.80
2023-05-21T20:14:21.160Z,17.80
2023-05-21T20:16:49.482Z,17.80
2023-05-21T20:19:17.114Z,17.80
2023-05-21T20:21:44.607Z,17.80
2023-05-21T20:24:12.340Z,17.80
2023-05-21T20:26:40.094Z,17.80
2023-05-21T20:29:08.240Z,17.70
2023-05-21T20:31:36.263Z,17.70
2023-05-21T20:34:12.983Z,17.70
2023-05-21T20:36:40.582Z,17.60
2023-05-21T20:39:09.454Z,17.50
2023-05-21T20:41:39.703Z,17.40
2023-05-21T20:44:07.358Z,17.30
2023-05-21T20:46:38.550Z,17.20
2023-05-21T20:49:06.361Z,17.10
2023-05-21T20:51:33.907Z,17.00
2023-05-21T20:54:01.461Z,16.90
2023-05-21T20:56:41.483Z,16.80
2023-05-21T20:59:12.771Z,16.70
2023-05-21T21:01:41.150Z,16.60
2023-05-21T21:04:09.231Z,16.50
2023-05-21T21:06:38.709Z,16.50
2023-05-21T21:09:06.220Z,16.40
2023-05-21T21:11:33.932Z,16.30
2023-05-21T21:14:02.931Z,16.20
2023-05-21T21:16:30.492Z,16.10
2023-05-21T21:18:58.291Z,16.00
2023-05-21T21:21:26.046Z,15.90
2023-05-21T21:23:53.501Z,15.80
2023-05-21T21:26:25.109Z,15.80
2023-05-21T21:28:52.442Z,15.80
2023-05-21T21:31:20.277Z,15.70
2023-05-21T21:33:47.892Z,15.70
2023-05-21T21:36:15.613Z,15.60
2023-05-21T21:38:43.118Z,15.60
2023-05-21T21:41:10.684Z,15.70
2023-05-21T21:43:38.123Z,15.80
2023-05-21T21:46:08.719Z,15.80
2023-05-21T21:48:36.470Z,15.80
2023-05-21T21:51:03.953Z,15.80
2023-05-21T21:53:31.326Z,15.80
2023-05-21T21:55:58.840Z,15.80
2023-05-21T21:58:26.693Z,15.70
2023-05-21T22:00:54.880Z,15.60
2023-05-21T22:03:23.047Z,15.50
2023-05-21T22:05:50.873Z,15.40
2023-05-21T22:08:18.345Z,15.40
2023-05-21T22:10:46.231Z,15.40
2023-05-21T22:13:15.838Z,15.20
2023-05-21T22:15:43.473Z,15.20
2023-05-21T22:18:12.347Z,15.00
2023-05-21T22:20:40.640Z,14.90
2023-05-21T22:23:08.128Z,14.90
2023-05-21T22:25:35.528Z,14.80
2023-05-21T22:28:03.146Z,14.80
2023-05-21T22:30:30.525Z,14.70
2023-05-21T22:32:58.278Z,14.70
2023-05-21T22:35:25.638Z,14.50
2023-05-21T22:37:53.502Z,14.50
2023-05-21T22:40:20.849Z,14.50
2023-05-21T22:42:48.542Z,14.40
2023-05-21T22:45:21.024Z,14.40
2023-05-21T22:47:52.182Z,14.40
2023-05-21T22:50:19.804Z,14.40
2023-05-21T22:52:47.199Z,14.40
2023-05-21T22:55:16.047Z,14.40
2023-05-21T22:57:43.638Z,14.40
2023-05-21T23:00:11.878Z,14.50
2023-05-21T23:02:39.316Z,14.50
2023-05-21T23:05:06.987Z,14.60
2023-05-21T23:07:34.474Z,14.60
2023-05-21T23:10:02.056Z,14.50
2023-05-21T23:12:32.139Z,14.40
2023-05-21T23:14:59.629Z,14.30
2023-05-21T23:17:27.103Z,14.20
2023-05-21T23:19:54.624Z,14.20
2023-05-21T23:22:22.104Z,14.10
2023-05-21T23:24:49.583Z,14.10
2023-05-21T23:27:17.066Z,14.00
2023-05-21T23:29:44.623Z,14.00
2023-05-21T23:32:17.053Z,14.00
2023-05-21T23:34:44.433Z,14.00
2023-05-21T23:37:14.628Z,14.00
2023-05-21T23:39:41.978Z,14.00
2023-05-21T23:42:09.343Z,13.90
2023-05-21T23:44:36.751Z,13.90
2023-05-21T23:47:04.213Z,13.80
2023-05-21T23:49:31.767Z,13.80
2023-05-21T23:52:01.711Z,13.70
2023-05-21T23:54:29.124Z,13.60
2023-05-21T23:56:56.495Z,13.60
2023-05-21T23:59:24.031Z,13.50
